sensor_id;sensor_type;location;lat;lon;timestamp;pressure;altitude;pressure_sealevel;temperature;humidity
76285;BME280;65096;50.998;7.098;2023-02-11T00:01:27;102890.44;;;5.03;57.07
76285;BME280;65096;50.998;7.098;2023-02-11T00:03:55;102875.00;;;5.01;57.56
76285;BME280;65096;50.998;7.098;2023-02-11T00:06:22;102870.38;;;4.96;57.28
76285;BME280;65096;50.998;7.098;2023-02-11T00:08:50;102868.91;;;4.99;57.56
76285;BME280;65096;50.998;7.098;2023-02-11T00:11:19;102867.03;;;4.97;57.12
76285;BME280;65096;50.998;7.098;2023-02-11T00:13:46;102865.25;;;4.96;57.39
76285;BME280;65096;50.998;7.098;2023-02-11T00:16:16;102871.84;;;4.92;57.50
76285;BME280;65096;50.998;7.098;2023-02-11T00:18:42;102869.91;;;4.88;57.21
76285;BME280;65096;50.998;7.098;2023-02-11T00:21:11;102877.56;;;4.88;57.34
76285;BME280;65096;50.998;7.098;2023-02-11T00:23:39;102874.03;;;4.86;57.13
76285;BME280;65096;50.998;7.098;2023-02-11T00:26:12;102873.03;;;4.84;57.63
76285;BME280;65096;50.998;7.098;2023-02-11T00:28:39;102862.72;;;4.82;57.38
76285;BME280;65096;50.998;7.098;2023-02-11T00:31:06;102859.97;;;4.79;57.11
76285;BME280;65096;50.998;7.098;2023-02-11T00:33:33;102859.78;;;4.76;57.30
76285;BME280;65096;50.998;7.098;2023-02-11T00:36:03;102859.78;;;4.76;57.30
76285;BME280;65096;50.998;7.098;2023-02-11T00:38:30;102863.91;;;4.74;57.26
76285;BME280;65096;50.998;7.098;2023-02-11T00:40:56;102816.22;;;4.49;57.44
76285;BME280;65096;50.998;7.098;2023-02-11T00:43:27;102855.06;;;4.69;57.53
76285;BME280;65096;50.998;7.098;2023-02-11T00:45:54;102850.72;;;4.68;57.22
76285;BME280;65096;50.998;7.098;2023-02-11T00:48:20;102850.63;;;4.67;57.26
76285;BME280;65096;50.998;7.098;2023-02-11T00:50:47;102844.63;;;4.66;57.80
76285;BME280;65096;50.998;7.098;2023-02-11T00:53:14;102837.66;;;4.64;57.64
76285;BME280;65096;50.998;7.098;2023-02-11T00:55:40;102841.78;;;4.62;57.29
76285;BME280;65096;50.998;7.098;2023-02-11T00:58:07;102839.13;;;4.60;57.21
76285;BME280;65096;50.998;7.098;2023-02-11T01:00:35;102840.59;;;4.57;57.70
76285;BME280;65096;50.998;7.098;2023-02-11T01:03:02;102835.31;;;4.54;57.50
76285;BME280;65096;50.998;7.098;2023-02-11T01:05:28;102837.75;;;4.52;57.18
76285;BME280;65096;50.998;7.098;2023-02-11T01:07:55;102841.88;;;4.50;57.64
76285;BME280;65096;50.998;7.098;2023-02-11T01:10:22;102846.13;;;4.50;57.79
76285;BME280;65096;50.998;7.098;2023-02-11T01:12:49;102844.25;;;4.47;57.19
76285;BME280;65096;50.998;7.098;2023-02-11T01:15:19;102851.03;;;4.47;57.64
76285;BME280;65096;50.998;7.098;2023-02-11T01:17:47;102858.50;;;4.44;57.64
76285;BME280;65096;50.998;7.098;2023-02-11T01:20:16;102847.41;;;4.43;57.59
76285;BME280;65096;50.998;7.098;2023-02-11T01:22:43;102847.31;;;4.42;57.55
76285;BME280;65096;50.998;7.098;2023-02-11T01:25:10;102841.19;;;4.40;57.61
76285;BME280;65096;50.998;7.098;2023-02-11T01:27:37;102845.31;;;4.38;57.89
76285;BME280;65096;50.998;7.098;2023-02-11T01:30:06;102841.81;;;4.36;57.52
76285;BME280;65096;50.998;7.098;2023-02-11T01:32:33;102838.34;;;4.35;58.03
76285;BME280;65096;50.998;7.098;2023-02-11T01:35:02;102842.47;;;4.33;57.63
76285;BME280;65096;50.998;7.098;2023-02-11T01:37:28;102845.78;;;4.32;58.22
76285;BME280;65096;50.998;7.098;2023-02-11T01:39:57;102847.06;;;4.26;57.99
76285;BME280;65096;50.998;7.098;2023-02-11T01:42:24;102863.56;;;4.31;58.34
76285;BME280;65096;50.998;7.098;2023-02-11T01:44:52;102844.09;;;4.20;57.90
76285;BME280;65096;50.998;7.098;2023-02-11T01:47:20;102861.47;;;4.25;58.32
76285;BME280;65096;50.998;7.098;2023-02-11T01:49:49;102867.38;;;4.24;58.31
76285;BME280;65096;50.998;7.098;2023-02-11T01:52:24;102860.47;;;4.23;58.37
76285;BME280;65096;50.998;7.098;2023-02-11T01:54:56;102865.41;;;4.20;58.14
76285;BME280;65096;50.998;7.098;2023-02-11T01:57:44;102858.44;;;4.18;58.26
76285;BME280;65096;50.998;7.098;2023-02-11T02:00:15;102843.78;;;4.15;58.27
76285;BME280;65096;50.998;7.098;2023-02-11T02:02:49;102826.78;;;4.03;58.77
76285;BME280;65096;50.998;7.098;2023-02-11T02:05:23;102849.56;;;4.13;58.52
76285;BME280;65096;50.998;7.098;2023-02-11T02:08:01;102853.78;;;4.12;59.06
76285;BME280;65096;50.998;7.098;2023-02-11T02:10:30;102852.94;;;4.12;58.64
76285;BME280;65096;50.998;7.098;2023-02-11T02:12:59;102852.03;;;4.11;58.67
76285;BME280;65096;50.998;7.098;2023-02-11T02:15:28;102843.88;;;4.04;58.64
76285;BME280;65096;50.998;7.098;2023-02-11T02:18:20;102848.59;;;4.11;59.26
76285;BME280;65096;50.998;7.098;2023-02-11T02:21:28;102856.84;;;4.07;60.31
76285;BME280;65096;50.998;7.098;2023-02-11T02:24:32;102862.50;;;4.03;60.08
76285;BME280;65096;50.998;7.098;2023-02-11T02:32:54;102844.22;;;3.97;59.47
76285;BME280;65096;50.998;7.098;2023-02-11T02:35:30;102822.31;;;3.87;59.31
76285;BME280;65096;50.998;7.098;2023-02-11T02:38:03;102838.13;;;3.95;59.01
76285;BME280;65096;50.998;7.098;2023-02-11T02:40:34;102843.94;;;3.92;59.38
76285;BME280;65096;50.998;7.098;2023-02-11T02:43:02;102845.41;;;3.89;59.41
76285;BME280;65096;50.998;7.098;2023-02-11T02:45:31;102828.44;;;3.89;60.56
76285;BME280;65096;50.998;7.098;2023-02-11T02:47:59;102817.59;;;3.80;62.05
76285;BME280;65096;50.998;7.098;2023-02-11T02:50:29;102814.97;;;3.67;62.09
76285;BME280;65096;50.998;7.098;2023-02-11T02:53:10;102812.78;;;3.72;61.17
76285;BME280;65096;50.998;7.098;2023-02-11T02:55:45;102813.97;;;3.77;61.05
76285;BME280;65096;50.998;7.098;2023-02-11T02:58:47;102798.66;;;3.77;61.20
76285;BME280;65096;50.998;7.098;2023-02-11T03:01:26;102794.63;;;3.80;60.59
76285;BME280;65096;50.998;7.098;2023-02-11T03:04:04;102788.66;;;3.80;61.44
76285;BME280;65096;50.998;7.098;2023-02-11T03:06:44;102805.81;;;3.82;62.20
76285;BME280;65096;50.998;7.098;2023-02-11T03:09:15;102798.75;;;3.78;60.52
76285;BME280;65096;50.998;7.098;2023-02-11T03:11:44;102806.72;;;3.83;62.75
76285;BME280;65096;50.998;7.098;2023-02-11T03:14:14;102806.72;;;3.83;61.01
76285;BME280;65096;50.998;7.098;2023-02-11T03:16:42;102801.59;;;3.83;60.65
76285;BME280;65096;50.998;7.098;2023-02-11T03:19:14;102811.91;;;3.84;60.70
76285;BME280;65096;50.998;7.098;2023-02-11T03:21:43;102807.66;;;3.85;59.86
76285;BME280;65096;50.998;7.098;2023-02-11T03:24:15;102811.91;;;3.84;60.61
76285;BME280;65096;50.998;7.098;2023-02-11T03:26:47;102815.31;;;3.85;60.60
76285;BME280;65096;50.998;7.098;2023-02-11T03:29:19;102813.66;;;3.85;61.35
76285;BME280;65096;50.998;7.098;2023-02-11T03:31:55;102809.38;;;3.84;61.44
76285;BME280;65096;50.998;7.098;2023-02-11T03:34:29;102808.47;;;3.84;61.37
76285;BME280;65096;50.998;7.098;2023-02-11T03:37:00;102796.59;;;3.84;61.95
76285;BME280;65096;50.998;7.098;2023-02-11T03:39:34;102794.06;;;3.84;61.13
76285;BME280;65096;50.998;7.098;2023-02-11T03:42:02;102787.38;;;3.86;63.40
76285;BME280;65096;50.998;7.098;2023-02-11T03:44:33;102783.44;;;3.78;61.37
76285;BME280;65096;50.998;7.098;2023-02-11T03:47:03;102776.16;;;3.71;62.45
76285;BME280;65096;50.998;7.098;2023-02-11T03:49:34;102769.19;;;3.69;62.52
76285;BME280;65096;50.998;7.098;2023-02-11T03:52:02;102790.31;;;3.79;62.51
76285;BME280;65096;50.998;7.098;2023-02-11T03:54:31;102799.91;;;3.83;62.21
76285;BME280;65096;50.998;7.098;2023-02-11T03:57:00;102812.00;;;3.86;62.08
76285;BME280;65096;50.998;7.098;2023-02-11T03:59:28;102790.00;;;3.75;62.13
76285;BME280;65096;50.998;7.098;2023-02-11T04:01:55;102808.56;;;3.85;62.17
76285;BME280;65096;50.998;7.098;2023-02-11T04:04:24;102788.22;;;3.74;62.21
76285;BME280;65096;50.998;7.098;2023-02-11T04:06:52;102806.59;;;3.81;65.74
76285;BME280;65096;50.998;7.098;2023-02-11T04:09:18;102808.16;;;3.79;63.24
76285;BME280;65096;50.998;7.098;2023-02-11T04:11:45;102804.81;;;3.80;63.25
76285;BME280;65096;50.998;7.098;2023-02-11T04:14:12;102801.91;;;3.87;63.05
76285;BME280;65096;50.998;7.098;2023-02-11T04:16:38;102797.09;;;3.92;63.42
76285;BME280;65096;50.998;7.098;2023-02-11T04:19:05;102789.53;;;3.93;65.18
76285;BME280;65096;50.998;7.098;2023-02-11T04:21:32;102792.00;;;3.92;63.92
76285;BME280;65096;50.998;7.098;2023-02-11T04:24:00;102790.63;;;3.97;62.62
76285;BME280;65096;50.998;7.098;2023-02-11T04:26:27;102794.34;;;3.89;63.53
76285;BME280;65096;50.998;7.098;2023-02-11T04:28:53;102785.03;;;3.89;64.33
76285;BME280;65096;50.998;7.098;2023-02-11T04:31:20;102780.09;;;3.79;65.97
76285;BME280;65096;50.998;7.098;2023-02-11T04:33:46;102781.00;;;3.80;65.39
76285;BME280;65096;50.998;7.098;2023-02-11T04:36:13;102786.09;;;3.80;64.68
76285;BME280;65096;50.998;7.098;2023-02-11T04:38:40;102774.13;;;3.92;63.68
76285;BME280;65096;50.998;7.098;2023-02-11T04:41:08;102771.31;;;4.00;63.34
76285;BME280;65096;50.998;7.098;2023-02-11T04:43:36;102778.16;;;4.01;64.44
76285;BME280;65096;50.998;7.098;2023-02-11T04:46:03;102766.78;;;4.09;64.30
76285;BME280;65096;50.998;7.098;2023-02-11T04:48:29;102770.72;;;4.04;63.96
76285;BME280;65096;50.998;7.098;2023-02-11T04:50:56;102771.00;;;4.09;63.35
76285;BME280;65096;50.998;7.098;2023-02-11T04:53:22;102773.19;;;4.16;63.78
76285;BME280;65096;50.998;7.098;2023-02-11T04:55:49;102774.63;;;4.12;63.62
76285;BME280;65096;50.998;7.098;2023-02-11T04:58:18;102767.09;;;4.14;63.63
76285;BME280;65096;50.998;7.098;2023-02-11T05:00:45;102752.06;;;4.05;63.53
76285;BME280;65096;50.998;7.098;2023-02-11T05:03:12;102776.53;;;4.15;64.81
76285;BME280;65096;50.998;7.098;2023-02-11T05:05:39;102781.94;;;4.19;63.18
76285;BME280;65096;50.998;7.098;2023-02-11T05:08:06;102783.69;;;4.20;63.12
76285;BME280;65096;50.998;7.098;2023-02-11T05:10:33;102785.16;;;4.17;64.18
76285;BME280;65096;50.998;7.098;2023-02-11T05:13:00;102778.09;;;4.13;64.69
76285;BME280;65096;50.998;7.098;2023-02-11T05:15:29;102777.50;;;4.17;65.08
76285;BME280;65096;50.998;7.098;2023-02-11T05:17:56;102775.25;;;4.21;64.68
76285;BME280;65096;50.998;7.098;2023-02-11T05:20:22;102772.00;;;4.24;64.13
76285;BME280;65096;50.998;7.098;2023-02-11T05:22:49;102769.53;;;4.25;64.35
76285;BME280;65096;50.998;7.098;2023-02-11T05:25:16;102770.91;;;4.20;64.16
76285;BME280;65096;50.998;7.098;2023-02-11T05:27:42;102776.31;;;4.25;63.52
76285;BME280;65096;50.998;7.098;2023-02-11T05:30:10;102782.03;;;4.21;64.25
76285;BME280;65096;50.998;7.098;2023-02-11T05:32:38;102769.16;;;4.19;64.54
76285;BME280;65096;50.998;7.098;2023-02-11T05:35:05;102771.53;;;4.16;65.25
76285;BME280;65096;50.998;7.098;2023-02-11T05:37:32;102774.16;;;4.18;64.61
76285;BME280;65096;50.998;7.098;2023-02-11T05:39:59;102769.06;;;4.18;65.18
76285;BME280;65096;50.998;7.098;2023-02-11T05:42:25;102771.00;;;4.22;64.92
76285;BME280;65096;50.998;7.098;2023-02-11T05:44:52;102768.88;;;4.28;65.45
76285;BME280;65096;50.998;7.098;2023-02-11T05:47:19;102768.41;;;4.33;64.94
76285;BME280;65096;50.998;7.098;2023-02-11T05:49:47;102761.50;;;4.32;64.88
76285;BME280;65096;50.998;7.098;2023-02-11T05:52:13;102759.84;;;4.33;65.06
76285;BME280;65096;50.998;7.098;2023-02-11T05:54:40;102757.88;;;4.29;65.09
76285;BME280;65096;50.998;7.098;2023-02-11T05:57:07;102761.31;;;4.29;65.13
76285;BME280;65096;50.998;7.098;2023-02-11T05:59:33;102759.84;;;4.33;64.65
76285;BME280;65096;50.998;7.098;2023-02-11T06:02:00;102754.59;;;4.31;65.13
76285;BME280;65096;50.998;7.098;2023-02-11T06:04:30;102750.41;;;4.32;65.73
76285;BME280;65096;50.998;7.098;2023-02-11T06:06:58;102744.19;;;4.28;66.72
76285;BME280;65096;50.998;7.098;2023-02-11T06:09:25;102735.88;;;4.31;65.55
76285;BME280;65096;50.998;7.098;2023-02-11T06:11:52;102729.06;;;4.31;65.73
76285;BME280;65096;50.998;7.098;2023-02-11T06:14:19;102740.31;;;4.33;65.63
76285;BME280;65096;50.998;7.098;2023-02-11T06:16:46;102737.84;;;4.35;65.34
76285;BME280;65096;50.998;7.098;2023-02-11T06:19:12;102732.94;;;4.38;65.47
76285;BME280;65096;50.998;7.098;2023-02-11T06:21:39;102751.63;;;4.37;65.53
76285;BME280;65096;50.998;7.098;2023-02-11T06:24:07;102741.69;;;4.41;65.27
76285;BME280;65096;50.998;7.098;2023-02-11T06:26:34;102751.91;;;4.41;65.34
76285;BME280;65096;50.998;7.098;2023-02-11T06:29:01;102759.28;;;4.37;65.76
76285;BME280;65096;50.998;7.098;2023-02-11T06:31:27;102748.53;;;4.42;65.61
76285;BME280;65096;50.998;7.098;2023-02-11T06:33:54;102750.44;;;4.45;65.40
76285;BME280;65096;50.998;7.098;2023-02-11T06:36:21;102746.97;;;4.44;66.41
76285;BME280;65096;50.998;7.098;2023-02-11T06:38:49;102752.19;;;4.46;65.72
76285;BME280;65096;50.998;7.098;2023-02-11T06:41:18;102752.28;;;4.47;65.59
76285;BME280;65096;50.998;7.098;2023-02-11T06:43:46;102747.97;;;4.46;66.70
76285;BME280;65096;50.998;7.098;2023-02-11T06:46:13;102753.16;;;4.48;66.09
76285;BME280;65096;50.998;7.098;2023-02-11T06:48:40;102743.25;;;4.39;66.12
76285;BME280;65096;50.998;7.098;2023-02-11T06:51:08;102752.88;;;4.43;65.93
76285;BME280;65096;50.998;7.098;2023-02-11T06:53:36;102767.59;;;4.47;66.48
76285;BME280;65096;50.998;7.098;2023-02-11T06:56:06;102768.00;;;4.53;66.37
76285;BME280;65096;50.998;7.098;2023-02-11T06:58:35;102770.56;;;4.53;66.36
76285;BME280;65096;50.998;7.098;2023-02-11T07:01:03;102771.25;;;4.51;66.52
76285;BME280;65096;50.998;7.098;2023-02-11T07:03:32;102769.69;;;4.53;66.22
76285;BME280;65096;50.998;7.098;2023-02-11T07:06:00;102776.06;;;4.59;65.98
76285;BME280;65096;50.998;7.098;2023-02-11T07:08:27;102777.03;;;4.61;65.92
76285;BME280;65096;50.998;7.098;2023-02-11T07:10:54;102779.00;;;4.65;65.96
76285;BME280;65096;50.998;7.098;2023-02-11T07:13:20;102773.88;;;4.65;65.86
76285;BME280;65096;50.998;7.098;2023-02-11T07:15:49;102783.41;;;4.68;65.71
76285;BME280;65096;50.998;7.098;2023-02-11T07:18:15;102777.63;;;4.70;65.58
76285;BME280;65096;50.998;7.098;2023-02-11T07:20:42;102780.84;;;4.68;65.77
76285;BME280;65096;50.998;7.098;2023-02-11T07:23:09;102783.41;;;4.68;66.21
76285;BME280;65096;50.998;7.098;2023-02-11T07:25:36;102785.19;;;4.69;66.16
76285;BME280;65096;50.998;7.098;2023-02-11T07:28:03;102786.09;;;4.69;65.69
76285;BME280;65096;50.998;7.098;2023-02-11T07:30:30;102789.50;;;4.70;66.02
76285;BME280;65096;50.998;7.098;2023-02-11T07:32:58;102794.69;;;4.71;65.92
76285;BME280;65096;50.998;7.098;2023-02-11T07:35:25;102804.16;;;4.72;66.18
76285;BME280;65096;50.998;7.098;2023-02-11T07:37:51;102797.16;;;4.70;66.14
76285;BME280;65096;50.998;7.098;2023-02-11T07:40:18;102795.59;;;4.72;66.08
76285;BME280;65096;50.998;7.098;2023-02-11T07:42:45;102807.66;;;4.74;66.34
76285;BME280;65096;50.998;7.098;2023-02-11T07:45:11;102801.69;;;4.74;66.28
76285;BME280;65096;50.998;7.098;2023-02-11T07:47:38;102809.47;;;4.75;66.14
76285;BME280;65096;50.998;7.098;2023-02-11T07:50:08;102801.97;;;4.78;66.34
76285;BME280;65096;50.998;7.098;2023-02-11T07:52:35;102801.88;;;4.77;66.31
76285;BME280;65096;50.998;7.098;2023-02-11T07:55:02;102807.75;;;4.76;66.63
76285;BME280;65096;50.998;7.098;2023-02-11T07:57:29;102807.00;;;4.77;66.07
76285;BME280;65096;50.998;7.098;2023-02-11T07:59:55;102812.88;;;4.76;66.30
76285;BME280;65096;50.998;7.098;2023-02-11T08:02:22;102813.09;;;4.79;66.53
76285;BME280;65096;50.998;7.098;2023-02-11T08:04:49;102823.19;;;4.77;66.32
76285;BME280;65096;50.998;7.098;2023-02-11T08:07:17;102824.88;;;4.77;66.79
76285;BME280;65096;50.998;7.098;2023-02-11T08:09:44;102827.34;;;4.75;66.70
76285;BME280;65096;50.998;7.098;2023-02-11T08:12:11;102832.56;;;4.77;66.66
76285;BME280;65096;50.998;7.098;2023-02-11T08:14:38;102826.44;;;4.75;66.95
76285;BME280;65096;50.998;7.098;2023-02-11T08:17:04;102817.22;;;4.77;67.23
76285;BME280;65096;50.998;7.098;2023-02-11T08:19:31;102813.09;;;4.66;68.08
76285;BME280;65096;50.998;7.098;2023-02-11T08:21:58;102820.97;;;4.69;67.61
76285;BME280;65096;50.998;7.098;2023-02-11T08:24:27;102824.19;;;4.66;68.45
76285;BME280;65096;50.998;7.098;2023-02-11T08:26:53;102819.41;;;4.71;67.95
76285;BME280;65096;50.998;7.098;2023-02-11T08:29:20;102823.53;;;4.69;68.91
76285;BME280;65096;50.998;7.098;2023-02-11T08:31:47;102815.66;;;4.66;68.40
76285;BME280;65096;50.998;7.098;2023-02-11T08:34:15;102822.03;;;4.72;69.60
76285;BME280;65096;50.998;7.098;2023-02-11T08:36:46;102827.81;;;4.57;70.30
76285;BME280;65096;50.998;7.098;2023-02-11T08:39:15;102803.38;;;4.47;69.22
76285;BME280;65096;50.998;7.098;2023-02-11T08:41:43;102829.38;;;4.68;68.67
76285;BME280;65096;50.998;7.098;2023-02-11T08:44:10;102829.19;;;4.65;69.82
76285;BME280;65096;50.998;7.098;2023-02-11T08:46:37;102829.09;;;4.63;69.14
76285;BME280;65096;50.998;7.098;2023-02-11T08:49:04;102833.75;;;4.69;69.26
76285;BME280;65096;50.998;7.098;2023-02-11T08:51:31;102844.25;;;4.73;68.81
76285;BME280;65096;50.998;7.098;2023-02-11T08:53:58;102841.22;;;4.79;68.31
76285;BME280;65096;50.998;7.098;2023-02-11T08:56:25;102836.28;;;4.82;68.17
76285;BME280;65096;50.998;7.098;2023-02-11T08:58:53;102840.78;;;4.86;68.12
76285;BME280;65096;50.998;7.098;2023-02-11T09:01:23;102852.09;;;4.89;67.98
76285;BME280;65096;50.998;7.098;2023-02-11T09:03:50;102859.06;;;4.92;67.79
76285;BME280;65096;50.998;7.098;2023-02-11T09:06:18;102856.50;;;4.92;67.77
76285;BME280;65096;50.998;7.098;2023-02-11T09:08:48;102871.16;;;4.95;68.52
76285;BME280;65096;50.998;7.098;2023-02-11T09:11:16;102870.38;;;4.96;68.18
76285;BME280;65096;50.998;7.098;2023-02-11T09:13:43;102879.94;;;4.98;69.00
76285;BME280;65096;50.998;7.098;2023-02-11T09:16:17;102875.19;;;4.91;69.26
76285;BME280;65096;50.998;7.098;2023-02-11T09:18:45;102876.97;;;4.92;68.66
76285;BME280;65096;50.998;7.098;2023-02-11T09:21:12;102884.84;;;4.95;68.31
76285;BME280;65096;50.998;7.098;2023-02-11T09:23:39;102878.13;;;4.97;68.47
76285;BME280;65096;50.998;7.098;2023-02-11T09:26:11;102874.63;;;4.95;68.41
76285;BME280;65096;50.998;7.098;2023-02-11T09:28:38;102871.25;;;4.96;68.40
76285;BME280;65096;50.998;7.098;2023-02-11T09:31:06;102872.25;;;4.85;69.28
76285;BME280;65096;50.998;7.098;2023-02-11T09:33:34;102876.75;;;4.89;69.00
76285;BME280;65096;50.998;7.098;2023-02-11T09:36:02;102884.03;;;4.96;68.52
76285;BME280;65096;50.998;7.098;2023-02-11T09:38:30;102878.56;;;4.90;70.34
76285;BME280;65096;50.998;7.098;2023-02-11T09:40:56;102874.63;;;4.82;69.96
76285;BME280;65096;50.998;7.098;2023-02-11T09:43:30;102881.13;;;4.77;71.92
76285;BME280;65096;50.998;7.098;2023-02-11T09:45:59;102882.50;;;4.85;69.48
76285;BME280;65096;50.998;7.098;2023-02-11T09:48:25;102868.72;;;4.70;71.63
76285;BME280;65096;50.998;7.098;2023-02-11T09:50:57;102889.53;;;4.76;71.01
76285;BME280;65096;50.998;7.098;2023-02-11T09:53:25;102892.91;;;4.75;72.49
76285;BME280;65096;50.998;7.098;2023-02-11T09:55:54;102893.28;;;4.81;70.29
76285;BME280;65096;50.998;7.098;2023-02-11T09:58:25;102897.41;;;4.92;70.62
76285;BME280;65096;50.998;7.098;2023-02-11T10:00:58;102896.63;;;4.93;69.69
76285;BME280;65096;50.998;7.098;2023-02-11T10:03:58;102891.81;;;4.98;69.99
76285;BME280;65096;50.998;7.098;2023-02-11T10:06:40;102889.44;;;5.01;70.24
76285;BME280;65096;50.998;7.098;2023-02-11T10:09:33;102902.50;;;5.05;70.60
76285;BME280;65096;50.998;7.098;2023-02-11T10:12:14;102904.22;;;5.05;70.13
76285;BME280;65096;50.998;7.098;2023-02-11T10:14:55;102907.44;;;5.02;70.34
76285;BME280;65096;50.998;7.098;2023-02-11T10:17:33;102874.81;;;4.85;70.31
76285;BME280;65096;50.998;7.098;2023-02-11T10:20:12;102920.22;;;5.02;70.27
76285;BME280;65096;50.998;7.098;2023-02-11T10:22:43;102917.66;;;5.02;71.29
76285;BME280;65096;50.998;7.098;2023-02-11T10:25:18;102899.97;;;4.92;70.20
76285;BME280;65096;50.998;7.098;2023-02-11T10:27:46;102911.09;;;5.06;70.43
76285;BME280;65096;50.998;7.098;2023-02-11T10:30:19;102908.53;;;5.06;70.26
76285;BME280;65096;50.998;7.098;2023-02-11T10:32:50;102904.59;;;5.11;70.34
76285;BME280;65096;50.998;7.098;2023-02-11T10:35:20;102903.50;;;5.07;70.26
76285;BME280;65096;50.998;7.098;2023-02-11T10:37:49;102905.44;;;5.11;69.94
76285;BME280;65096;50.998;7.098;2023-02-11T10:40:17;102913.03;;;5.10;70.94
76285;BME280;65096;50.998;7.098;2023-02-11T10:42:47;102915.81;;;5.13;70.14
76285;BME280;65096;50.998;7.098;2023-02-11T10:45:21;102912.44;;;5.14;70.11
76285;BME280;65096;50.998;7.098;2023-02-11T10:47:48;102913.81;;;5.09;70.54
76285;BME280;65096;50.998;7.098;2023-02-11T10:50:24;102919.22;;;5.13;70.07
76285;BME280;65096;50.998;7.098;2023-02-11T10:53:10;102922.78;;;5.15;70.51
76285;BME280;65096;50.998;7.098;2023-02-11T10:55:46;102923.66;;;5.16;70.26
76285;BME280;65096;50.998;7.098;2023-02-11T10:58:23;102915.28;;;5.18;71.09
76285;BME280;65096;50.998;7.098;2023-02-11T11:00:52;102908.69;;;5.22;69.94
76285;BME280;65096;50.998;7.098;2023-02-11T11:03:20;102914.72;;;5.22;70.07
76285;BME280;65096;50.998;7.098;2023-02-11T11:05:53;102918.53;;;5.29;70.01
76285;BME280;65096;50.998;7.098;2023-02-11T11:08:36;102913.19;;;5.26;70.35
76285;BME280;65096;50.998;7.098;2023-02-11T11:11:06;102908.00;;;5.24;69.63
76285;BME280;65096;50.998;7.098;2023-02-11T11:13:35;102915.75;;;5.26;69.75
76285;BME280;65096;50.998;7.098;2023-02-11T11:16:17;102916.84;;;5.29;69.67
76285;BME280;65096;50.998;7.098;2023-02-11T11:18:47;102908.69;;;5.35;69.66
76285;BME280;65096;50.998;7.098;2023-02-11T11:21:17;102903.56;;;5.35;69.75
76285;BME280;65096;50.998;7.098;2023-02-11T11:23:55;102913.88;;;5.36;69.47
76285;BME280;65096;50.998;7.098;2023-02-11T11:26:22;102904.44;;;5.35;69.84
76285;BME280;65096;50.998;7.098;2023-02-11T11:28:54;102903.56;;;5.35;70.21
76285;BME280;65096;50.998;7.098;2023-02-11T11:31:23;102905.41;;;5.37;70.44
76285;BME280;65096;50.998;7.098;2023-02-11T11:33:53;102900.19;;;5.36;69.48
76285;BME280;65096;50.998;7.098;2023-02-11T11:36:23;102906.97;;;5.35;69.83
76285;BME280;65096;50.998;7.098;2023-02-11T11:38:54;102903.56;;;5.35;70.33
76285;BME280;65096;50.998;7.098;2023-02-11T11:41:26;102893.53;;;5.38;70.01
76285;BME280;65096;50.998;7.098;2023-02-11T11:43:58;102908.88;;;5.38;70.42
76285;BME280;65096;50.998;7.098;2023-02-11T11:46:28;102903.84;;;5.39;70.90
76285;BME280;65096;50.998;7.098;2023-02-11T11:49:04;102895.19;;;5.37;70.67
76285;BME280;65096;50.998;7.098;2023-02-11T11:51:32;102900.91;;;5.33;70.61
76285;BME280;65096;50.998;7.098;2023-02-11T11:54:03;102902.94;;;5.39;69.94
76285;BME280;65096;50.998;7.098;2023-02-11T11:56:34;102900.47;;;5.40;70.24
76285;BME280;65096;50.998;7.098;2023-02-11T11:59:09;102896.25;;;5.41;70.71
76285;BME280;65096;50.998;7.098;2023-02-11T12:01:44;102893.59;;;5.39;70.14
76285;BME280;65096;50.998;7.098;2023-02-11T12:04:41;102898.09;;;5.43;70.46
76285;BME280;65096;50.998;7.098;2023-02-11T12:07:22;102893.09;;;5.45;69.98
76285;BME280;65096;50.998;7.098;2023-02-11T12:10:17;102894.50;;;5.40;70.67
76285;BME280;65096;50.998;7.098;2023-02-11T12:12:53;102889.84;;;5.47;70.10
76285;BME280;65096;50.998;7.098;2023-02-11T12:15:30;102896.81;;;5.50;70.24
76285;BME280;65096;50.998;7.098;2023-02-11T12:18:19;102890.84;;;5.49;69.93
76285;BME280;65096;50.998;7.098;2023-02-11T12:21:08;102898.78;;;5.54;70.44
76285;BME280;65096;50.998;7.098;2023-02-11T12:23:49;102894.75;;;5.57;69.86
76285;BME280;65096;50.998;7.098;2023-02-11T12:26:22;102888.91;;;5.60;69.61
76285;BME280;65096;50.998;7.098;2023-02-11T12:29:02;102891.56;;;5.61;70.26
76285;BME280;65096;50.998;7.098;2023-02-11T12:31:43;102892.19;;;5.57;70.19
76285;BME280;65096;50.998;7.098;2023-02-11T12:34:34;102889.72;;;5.59;69.85
76285;BME280;65096;50.998;7.098;2023-02-11T12:37:15;102893.34;;;5.62;70.54
76285;BME280;65096;50.998;7.098;2023-02-11T12:39:50;102906.84;;;5.60;69.84
76285;BME280;65096;50.998;7.098;2023-02-11T12:42:33;102903.38;;;5.59;70.32
76285;BME280;65096;50.998;7.098;2023-02-11T12:45:28;102898.34;;;5.61;70.40
76285;BME280;65096;50.998;7.098;2023-02-11T12:48:14;102893.84;;;5.57;70.68
76285;BME280;65096;50.998;7.098;2023-02-11T12:50:53;102895.59;;;5.58;70.31
76285;BME280;65096;50.998;7.098;2023-02-11T12:53:46;102886.81;;;5.67;70.21
76285;BME280;65096;50.998;7.098;2023-02-11T12:56:20;102888.91;;;5.60;70.52
76285;BME280;65096;50.998;7.098;2023-02-11T12:58:51;102887.44;;;5.63;70.27
76285;BME280;65096;50.998;7.098;2023-02-11T13:01:23;102883.63;;;5.57;71.02
76285;BME280;65096;50.998;7.098;2023-02-11T13:03:55;102880.16;;;5.56;70.95
76285;BME280;65096;50.998;7.098;2023-02-11T13:06:28;102878.19;;;5.65;70.55
76285;BME280;65096;50.998;7.098;2023-02-11T13:09:00;102869.78;;;5.68;70.09
76285;BME280;65096;50.998;7.098;2023-02-11T13:11:31;102879.22;;;5.69;70.21
76285;BME280;65096;50.998;7.098;2023-02-11T13:14:06;102881.09;;;5.71;70.43
76285;BME280;65096;50.998;7.098;2023-02-11T13:16:42;102875.19;;;5.72;70.32
76285;BME280;65096;50.998;7.098;2023-02-11T13:19:17;102882.34;;;5.78;70.29
76285;BME280;65096;50.998;7.098;2023-02-11T13:21:59;102859.00;;;5.59;70.86
76285;BME280;65096;50.998;7.098;2023-02-11T13:24:36;102868.22;;;5.70;70.49